Terminal Aerodrome Forecast
Issued by NWS Denver/Boulder, CO

Home | Current Version | Previous Version | Text Only | Print | Product List | Glossary On
Versions: 1 2 3 4 5 6 7 8 9 10 11 12 13 14 15 16 17 18 19 20 21 22 23 24 25 26 27 28 29 30 31 32 33 34 35 36 37 38 39 40 41 42 43 44 45 46 47 48 49 50
000
FTUS45 KBOU 260854 AAB
TAFDEN
TAF AMD
KDEN 260854Z 2609/2712 17011KT P6SM FEW150 BKN250
     FM261100 20010KT P6SM FEW150 BKN250
     FM261400 24007KT P6SM FEW140 SCT250
     FM262100 18012G22KT P6SM SCT080 BKN180 PROB30 2623/2702 -TSRA
      SCT080CB
     FM270200 23012KT P6SM SCT090 BKN150=

USA.gov is the U.S. government's official web portal to all federal, state and local government web resources and services.